sensor_id;sensor_type;location;lat;lon;timestamp;pressure;altitude;pressure_sealevel;temperature;humidity
23589;BME280;11972;48.078;11.876;2022-12-29T00:03:24;95283.25;;;0.38;100.00
23589;BME280;11972;48.078;11.876;2022-12-29T00:07:25;95287.34;;;0.40;100.00
23589;BME280;11972;48.078;11.876;2022-12-29T00:11:26;95290.50;;;0.44;100.00
23589;BME280;11972;48.078;11.876;2022-12-29T00:15:27;95275.88;;;0.43;100.00
23589;BME280;11972;48.078;11.876;2022-12-29T00:19:40;95275.88;;;0.43;100.00
23589;BME280;11972;48.078;11.876;2022-12-29T00:23:59;95279.31;;;0.43;100.00
23589;BME280;11972;48.078;11.876;2022-12-29T00:28:18;95268.47;;;0.38;100.00
23589;BME280;11972;48.078;11.876;2022-12-29T00:32:44;95262.84;;;0.33;100.00
23589;BME280;11972;48.078;11.876;2022-12-29T00:37:03;95256.91;;;0.31;100.00
23589;BME280;11972;48.078;11.876;2022-12-29T00:41:03;95264.03;;;0.29;100.00
23589;BME280;11972;48.078;11.876;2022-12-29T00:45:22;95260.97;;;0.24;100.00
23589;BME280;11972;48.078;11.876;2022-12-29T00:49:22;95258.66;;;0.21;100.00
23589;BME280;11972;48.078;11.876;2022-12-29T00:53:32;95251.66;;;0.21;100.00
23589;BME280;11972;48.078;11.876;2022-12-29T00:57:33;95247.91;;;0.14;100.00
23589;BME280;11972;48.078;11.876;2022-12-29T01:01:33;95260.19;;;0.12;100.00
23589;BME280;11972;48.078;11.876;2022-12-29T01:05:36;95259.75;;;0.07;100.00
23589;BME280;11972;48.078;11.876;2022-12-29T01:09:36;95256.56;;;0.04;100.00
23589;BME280;11972;48.078;11.876;2022-12-29T01:13:55;95255.16;;;-0.01;100.00
23589;BME280;11972;48.078;11.876;2022-12-29T01:17:55;95261.56;;;-0.05;100.00
23589;BME280;11972;48.078;11.876;2022-12-29T01:21:56;95260.16;;;-0.09;100.00
23589;BME280;11972;48.078;11.876;2022-12-29T01:25:56;95263.72;;;-0.10;100.00
23589;BME280;11972;48.078;11.876;2022-12-29T01:29:57;95260.44;;;-0.12;100.00
23589;BME280;11972;48.078;11.876;2022-12-29T01:33:57;95268.22;;;-0.12;100.00
23589;BME280;11972;48.078;11.876;2022-12-29T01:37:57;95279.28;;;-0.10;100.00
23589;BME280;11972;48.078;11.876;2022-12-29T01:41:58;95275.19;;;-0.12;100.00
23589;BME280;11972;48.078;11.876;2022-12-29T01:45:58;95272.59;;;-0.12;100.00
23589;BME280;11972;48.078;11.876;2022-12-29T01:50:04;95268.06;;;-0.10;100.00
23589;BME280;11972;48.078;11.876;2022-12-29T01:54:11;95254.72;;;-0.06;100.00
23589;BME280;11972;48.078;11.876;2022-12-29T01:58:14;95260.25;;;0.01;100.00
23589;BME280;11972;48.078;11.876;2022-12-29T02:02:15;95258.94;;;0.07;100.00
23589;BME280;11972;48.078;11.876;2022-12-29T02:06:22;95246.19;;;0.04;100.00
23589;BME280;11972;48.078;11.876;2022-12-29T02:10:27;95246.56;;;-0.01;100.00
23589;BME280;11972;48.078;11.876;2022-12-29T02:14:30;95242.94;;;-0.10;100.00
23589;BME280;11972;48.078;11.876;2022-12-29T02:18:38;95239.91;;;-0.15;100.00
23589;BME280;11972;48.078;11.876;2022-12-29T02:23:17;95238.50;;;-0.19;100.00
23589;BME280;11972;48.078;11.876;2022-12-29T02:31:59;95240.13;;;-0.18;100.00
23589;BME280;11972;48.078;11.876;2022-12-29T02:48:51;95242.47;;;0.38;100.00
23589;BME280;11972;48.078;11.876;2022-12-29T02:52:59;95232.47;;;0.55;100.00
23589;BME280;11972;48.078;11.876;2022-12-29T02:57:02;95234.47;;;0.72;100.00
23589;BME280;11972;48.078;11.876;2022-12-29T03:14:29;95223.63;;;0.97;100.00
23589;BME280;11972;48.078;11.876;2022-12-29T03:19:00;95216.78;;;0.96;100.00
23589;BME280;11972;48.078;11.876;2022-12-29T03:23:03;95225.81;;;0.92;100.00
23589;BME280;11972;48.078;11.876;2022-12-29T03:27:05;95216.63;;;0.88;100.00
23589;BME280;11972;48.078;11.876;2022-12-29T03:31:08;95216.19;;;0.83;100.00
23589;BME280;11972;48.078;11.876;2022-12-29T03:35:11;95211.81;;;0.84;100.00
23589;BME280;11972;48.078;11.876;2022-12-29T03:39:13;95219.78;;;0.92;100.00
23589;BME280;11972;48.078;11.876;2022-12-29T03:43:14;95208.44;;;1.03;100.00
23589;BME280;11972;48.078;11.876;2022-12-29T03:47:15;95215.34;;;1.13;100.00
23589;BME280;11972;48.078;11.876;2022-12-29T03:51:15;95191.69;;;1.26;100.00
23589;BME280;11972;48.078;11.876;2022-12-29T03:55:15;95196.94;;;1.45;100.00
23589;BME280;11972;48.078;11.876;2022-12-29T03:59:16;95192.84;;;1.62;100.00
23589;BME280;11972;48.078;11.876;2022-12-29T04:03:16;95201.38;;;1.84;100.00
23589;BME280;11972;48.078;11.876;2022-12-29T04:07:16;95192.84;;;2.01;100.00
23589;BME280;11972;48.078;11.876;2022-12-29T04:11:17;95192.19;;;2.18;100.00
23589;BME280;11972;48.078;11.876;2022-12-29T04:15:17;95197.50;;;2.36;100.00
23589;BME280;11972;48.078;11.876;2022-12-29T04:19:17;95199.66;;;2.51;100.00
23589;BME280;11972;48.078;11.876;2022-12-29T04:23:18;95197.59;;;2.64;100.00
23589;BME280;11972;48.078;11.876;2022-12-29T04:27:18;95192.19;;;2.75;100.00
23589;BME280;11972;48.078;11.876;2022-12-29T04:31:18;95197.06;;;2.88;100.00
23589;BME280;11972;48.078;11.876;2022-12-29T04:35:19;95204.06;;;2.97;100.00
23589;BME280;11972;48.078;11.876;2022-12-29T04:39:19;95196.47;;;3.04;100.00
23589;BME280;11972;48.078;11.876;2022-12-29T04:43:20;95193.75;;;2.95;100.00
23589;BME280;11972;48.078;11.876;2022-12-29T04:47:21;95200.22;;;2.91;100.00
23589;BME280;11972;48.078;11.876;2022-12-29T04:51:22;95192.28;;;2.93;100.00
23589;BME280;11972;48.078;11.876;2022-12-29T04:55:22;95188.00;;;2.92;100.00
23589;BME280;11972;48.078;11.876;2022-12-29T04:59:22;95178.50;;;3.01;100.00
23589;BME280;11972;48.078;11.876;2022-12-29T05:03:23;95164.88;;;3.07;100.00
23589;BME280;11972;48.078;11.876;2022-12-29T05:07:23;95162.06;;;3.18;100.00
23589;BME280;11972;48.078;11.876;2022-12-29T05:11:25;95152.84;;;3.41;100.00
23589;BME280;11972;48.078;11.876;2022-12-29T05:15:25;95157.94;;;3.61;100.00
23589;BME280;11972;48.078;11.876;2022-12-29T05:19:25;95163.13;;;3.70;100.00
23589;BME280;11972;48.078;11.876;2022-12-29T05:23:26;95168.19;;;3.72;100.00
23589;BME280;11972;48.078;11.876;2022-12-29T05:27:26;95173.78;;;3.59;100.00
23589;BME280;11972;48.078;11.876;2022-12-29T05:31:27;95171.28;;;3.58;100.00
23589;BME280;11972;48.078;11.876;2022-12-29T05:35:27;95163.88;;;3.63;100.00
23589;BME280;11972;48.078;11.876;2022-12-29T05:39:28;95173.03;;;3.67;100.00
23589;BME280;11972;48.078;11.876;2022-12-29T05:43:29;95167.41;;;3.62;100.00
23589;BME280;11972;48.078;11.876;2022-12-29T05:47:29;95174.75;;;3.58;100.00
23589;BME280;11972;48.078;11.876;2022-12-29T05:51:29;95172.88;;;3.51;100.00
23589;BME280;11972;48.078;11.876;2022-12-29T05:55:30;95183.31;;;3.51;100.00
23589;BME280;11972;48.078;11.876;2022-12-29T05:59:30;95166.53;;;3.53;100.00
23589;BME280;11972;48.078;11.876;2022-12-29T06:03:30;95169.94;;;3.54;100.00
23589;BME280;11972;48.078;11.876;2022-12-29T06:07:31;95159.91;;;3.59;100.00
23589;BME280;11972;48.078;11.876;2022-12-29T06:11:31;95165.25;;;3.57;100.00
23589;BME280;11972;48.078;11.876;2022-12-29T06:15:32;95156.25;;;3.52;100.00
23589;BME280;11972;48.078;11.876;2022-12-29T06:19:33;95158.16;;;3.49;100.00
23589;BME280;11972;48.078;11.876;2022-12-29T06:23:33;95148.31;;;3.43;100.00
23589;BME280;11972;48.078;11.876;2022-12-29T06:27:33;95150.56;;;3.38;100.00
23589;BME280;11972;48.078;11.876;2022-12-29T06:31:34;95148.75;;;3.39;100.00
23589;BME280;11972;48.078;11.876;2022-12-29T06:35:34;95162.72;;;3.47;100.00
23589;BME280;11972;48.078;11.876;2022-12-29T06:39:34;95159.75;;;3.60;100.00
23589;BME280;11972;48.078;11.876;2022-12-29T06:43:35;95156.41;;;3.68;100.00
23589;BME280;11972;48.078;11.876;2022-12-29T06:47:38;95161.41;;;3.79;100.00
23589;BME280;11972;48.078;11.876;2022-12-29T06:51:38;95164.38;;;3.84;100.00
23589;BME280;11972;48.078;11.876;2022-12-29T06:55:38;95164.63;;;3.91;100.00
23589;BME280;11972;48.078;11.876;2022-12-29T06:59:39;95175.28;;;3.97;100.00
23589;BME280;11972;48.078;11.876;2022-12-29T07:03:41;95180.03;;;4.02;100.00
23589;BME280;11972;48.078;11.876;2022-12-29T07:07:42;95176.03;;;4.08;100.00
23589;BME280;11972;48.078;11.876;2022-12-29T07:11:43;95177.66;;;4.09;100.00
23589;BME280;11972;48.078;11.876;2022-12-29T07:15:43;95183.56;;;4.11;100.00
23589;BME280;11972;48.078;11.876;2022-12-29T07:19:43;95191.91;;;4.14;100.00
23589;BME280;11972;48.078;11.876;2022-12-29T07:23:44;95201.63;;;4.22;100.00
23589;BME280;11972;48.078;11.876;2022-12-29T07:27:45;95197.38;;;4.21;100.00
23589;BME280;11972;48.078;11.876;2022-12-29T07:31:45;95190.94;;;4.15;100.00
23589;BME280;11972;48.078;11.876;2022-12-29T07:35:46;95215.31;;;4.16;100.00
23589;BME280;11972;48.078;11.876;2022-12-29T07:39:47;95215.16;;;4.17;100.00
23589;BME280;11972;48.078;11.876;2022-12-29T07:43:47;95215.31;;;4.16;100.00
23589;BME280;11972;48.078;11.876;2022-12-29T07:47:49;95220.75;;;4.05;100.00
23589;BME280;11972;48.078;11.876;2022-12-29T07:51:49;95231.00;;;4.16;100.00
23589;BME280;11972;48.078;11.876;2022-12-29T07:55:50;95235.09;;;4.36;100.00
23589;BME280;11972;48.078;11.876;2022-12-29T07:59:50;95236.50;;;4.48;100.00
23589;BME280;11972;48.078;11.876;2022-12-29T08:03:50;95221.03;;;4.37;100.00
23589;BME280;11972;48.078;11.876;2022-12-29T08:07:51;95221.13;;;4.10;100.00
23589;BME280;11972;48.078;11.876;2022-12-29T08:11:51;95223.22;;;3.88;100.00
23589;BME280;11972;48.078;11.876;2022-12-29T08:15:51;95227.16;;;3.75;100.00
23589;BME280;11972;48.078;11.876;2022-12-29T08:19:52;95226.91;;;3.68;100.00
23589;BME280;11972;48.078;11.876;2022-12-29T08:23:52;95234.59;;;3.69;100.00
23589;BME280;11972;48.078;11.876;2022-12-29T08:27:52;95239.38;;;3.74;100.00
23589;BME280;11972;48.078;11.876;2022-12-29T08:31:53;95246.03;;;3.86;100.00
23589;BME280;11972;48.078;11.876;2022-12-29T08:36:02;95244.72;;;4.00;100.00
23589;BME280;11972;48.078;11.876;2022-12-29T08:40:03;95241.44;;;4.16;100.00
23589;BME280;11972;48.078;11.876;2022-12-29T08:44:04;95239.09;;;4.31;100.00
23589;BME280;11972;48.078;11.876;2022-12-29T08:48:04;95235.28;;;4.43;100.00
23589;BME280;11972;48.078;11.876;2022-12-29T08:52:05;95238.66;;;4.53;100.00
23589;BME280;11972;48.078;11.876;2022-12-29T08:56:05;95245.13;;;4.67;100.00
23589;BME280;11972;48.078;11.876;2022-12-29T09:00:07;95244.41;;;4.83;100.00
23589;BME280;11972;48.078;11.876;2022-12-29T09:04:07;95236.63;;;5.25;100.00
23589;BME280;11972;48.078;11.876;2022-12-29T09:08:08;95229.59;;;5.60;100.00
23589;BME280;11972;48.078;11.876;2022-12-29T09:12:08;95244.38;;;5.77;100.00
23589;BME280;11972;48.078;11.876;2022-12-29T09:16:09;95236.84;;;5.82;100.00
23589;BME280;11972;48.078;11.876;2022-12-29T09:20:15;95234.56;;;5.87;100.00
23589;BME280;11972;48.078;11.876;2022-12-29T09:24:15;95235.72;;;5.85;100.00
23589;BME280;11972;48.078;11.876;2022-12-29T09:28:16;95240.13;;;5.76;100.00
23589;BME280;11972;48.078;11.876;2022-12-29T09:32:16;95241.72;;;5.69;100.00
23589;BME280;11972;48.078;11.876;2022-12-29T09:36:16;95234.38;;;5.72;100.00
23589;BME280;11972;48.078;11.876;2022-12-29T09:40:28;95224.31;;;5.94;100.00
23589;BME280;11972;48.078;11.876;2022-12-29T09:49:29;95232.38;;;6.58;100.00
23589;BME280;11972;48.078;11.876;2022-12-29T09:53:36;95219.91;;;6.76;100.00
23589;BME280;11972;48.078;11.876;2022-12-29T09:57:43;95217.25;;;7.01;100.00
23589;BME280;11972;48.078;11.876;2022-12-29T10:06:12;95203.28;;;8.10;100.00
23589;BME280;11972;48.078;11.876;2022-12-29T10:10:27;95198.31;;;8.99;100.00
23589;BME280;11972;48.078;11.876;2022-12-29T10:14:37;95187.75;;;9.58;100.00
23589;BME280;11972;48.078;11.876;2022-12-29T10:23:20;95197.88;;;9.90;100.00
23589;BME280;11972;48.078;11.876;2022-12-29T10:27:24;95199.69;;;10.05;100.00
23589;BME280;11972;48.078;11.876;2022-12-29T10:31:36;95201.00;;;10.15;100.00
23589;BME280;11972;48.078;11.876;2022-12-29T10:35:39;95180.34;;;10.19;100.00
23589;BME280;11972;48.078;11.876;2022-12-29T10:39:45;95186.16;;;10.29;100.00
23589;BME280;11972;48.078;11.876;2022-12-29T10:43:48;95184.50;;;10.28;100.00
23589;BME280;11972;48.078;11.876;2022-12-29T10:48:11;95178.41;;;10.28;100.00
23589;BME280;11972;48.078;11.876;2022-12-29T10:52:17;95182.88;;;10.27;100.00
23589;BME280;11972;48.078;11.876;2022-12-29T10:56:42;95176.69;;;10.20;100.00
23589;BME280;11972;48.078;11.876;2022-12-29T11:00:50;95173.59;;;9.95;100.00
23589;BME280;11972;48.078;11.876;2022-12-29T11:04:57;95160.59;;;9.93;100.00
23589;BME280;11972;48.078;11.876;2022-12-29T11:09:15;95155.81;;;10.04;100.00
23589;BME280;11972;48.078;11.876;2022-12-29T11:13:18;95149.81;;;10.10;100.00
23589;BME280;11972;48.078;11.876;2022-12-29T11:17:24;95150.94;;;10.22;100.00
23589;BME280;11972;48.078;11.876;2022-12-29T11:21:36;95139.13;;;10.39;100.00
23589;BME280;11972;48.078;11.876;2022-12-29T11:25:41;95146.16;;;10.54;100.00
23589;BME280;11972;48.078;11.876;2022-12-29T11:29:43;95138.13;;;10.62;100.00
23589;BME280;11972;48.078;11.876;2022-12-29T11:33:44;95138.34;;;10.67;100.00
23589;BME280;11972;48.078;11.876;2022-12-29T11:37:44;95139.44;;;10.79;100.00
23589;BME280;11972;48.078;11.876;2022-12-29T11:41:51;95136.66;;;10.87;100.00
23589;BME280;11972;48.078;11.876;2022-12-29T11:45:52;95139.47;;;10.86;100.00
23589;BME280;11972;48.078;11.876;2022-12-29T11:49:57;95132.19;;;10.88;100.00
23589;BME280;11972;48.078;11.876;2022-12-29T11:54:00;95122.06;;;10.91;100.00
23589;BME280;11972;48.078;11.876;2022-12-29T11:58:04;95121.81;;;10.86;100.00
23589;BME280;11972;48.078;11.876;2022-12-29T12:06:22;95114.44;;;10.75;100.00
23589;BME280;11972;48.078;11.876;2022-12-29T12:10:42;95106.88;;;10.72;100.00
23589;BME280;11972;48.078;11.876;2022-12-29T12:14:54;95110.78;;;10.48;100.00
23589;BME280;11972;48.078;11.876;2022-12-29T12:19:04;95100.16;;;10.20;100.00
23589;BME280;11972;48.078;11.876;2022-12-29T12:23:43;95105.81;;;9.95;100.00
23589;BME280;11972;48.078;11.876;2022-12-29T12:31:59;95097.84;;;9.67;100.00
23589;BME280;11972;48.078;11.876;2022-12-29T12:40:34;95086.72;;;9.72;100.00
23589;BME280;11972;48.078;11.876;2022-12-29T12:53:18;95077.41;;;10.40;100.00
23589;BME280;11972;48.078;11.876;2022-12-29T13:06:04;95077.81;;;10.37;100.00
23589;BME280;11972;48.078;11.876;2022-12-29T13:14:42;95065.41;;;10.66;100.00
23589;BME280;11972;48.078;11.876;2022-12-29T13:18:55;95070.56;;;10.81;100.00
23589;BME280;11972;48.078;11.876;2022-12-29T13:27:37;95059.88;;;10.96;100.00
23589;BME280;11972;48.078;11.876;2022-12-29T13:35:59;95049.41;;;11.22;100.00
23589;BME280;11972;48.078;11.876;2022-12-29T13:40:10;95054.16;;;11.33;100.00
23589;BME280;11972;48.078;11.876;2022-12-29T13:44:22;95059.03;;;11.36;100.00
23589;BME280;11972;48.078;11.876;2022-12-29T13:48:35;95058.63;;;11.39;100.00
23589;BME280;11972;48.078;11.876;2022-12-29T13:52:44;95062.50;;;11.43;100.00
23589;BME280;11972;48.078;11.876;2022-12-29T13:57:13;95071.47;;;11.36;100.00
23589;BME280;11972;48.078;11.876;2022-12-29T14:09:42;95074.88;;;10.88;100.00
23589;BME280;11972;48.078;11.876;2022-12-29T14:13:46;95081.25;;;10.66;100.00
23589;BME280;11972;48.078;11.876;2022-12-29T14:18:12;95086.97;;;10.41;100.00
23589;BME280;11972;48.078;11.876;2022-12-29T14:22:23;95087.09;;;10.12;100.00
23589;BME280;11972;48.078;11.876;2022-12-29T14:30:53;95094.19;;;9.68;100.00
23589;BME280;11972;48.078;11.876;2022-12-29T14:34:55;95091.13;;;9.50;100.00
23589;BME280;11972;48.078;11.876;2022-12-29T14:38:56;95088.91;;;9.32;100.00
23589;BME280;11972;48.078;11.876;2022-12-29T14:42:57;95087.94;;;9.18;100.00
23589;BME280;11972;48.078;11.876;2022-12-29T14:47:01;95088.88;;;9.11;100.00
23589;BME280;11972;48.078;11.876;2022-12-29T14:51:19;95092.59;;;9.02;100.00
23589;BME280;11972;48.078;11.876;2022-12-29T14:59:40;95090.13;;;8.70;100.00
23589;BME280;11972;48.078;11.876;2022-12-29T15:03:46;95095.38;;;8.41;100.00
23589;BME280;11972;48.078;11.876;2022-12-29T15:07:52;95107.25;;;8.14;100.00
23589;BME280;11972;48.078;11.876;2022-12-29T15:11:56;95098.91;;;7.87;100.00
23589;BME280;11972;48.078;11.876;2022-12-29T15:15:58;95103.81;;;7.67;100.00
23589;BME280;11972;48.078;11.876;2022-12-29T15:20:02;95109.00;;;7.53;100.00
23589;BME280;11972;48.078;11.876;2022-12-29T15:24:14;95114.00;;;7.39;100.00
23589;BME280;11972;48.078;11.876;2022-12-29T15:28:15;95122.44;;;7.27;100.00
23589;BME280;11972;48.078;11.876;2022-12-29T15:36:23;95127.97;;;7.01;100.00
23589;BME280;11972;48.078;11.876;2022-12-29T15:40:30;95117.53;;;6.84;100.00
23589;BME280;11972;48.078;11.876;2022-12-29T15:44:39;95125.94;;;6.63;100.00
23589;BME280;11972;48.078;11.876;2022-12-29T15:48:41;95138.59;;;6.52;100.00
23589;BME280;11972;48.078;11.876;2022-12-29T15:52:42;95133.03;;;6.38;100.00
23589;BME280;11972;48.078;11.876;2022-12-29T15:56:42;95138.44;;;6.29;100.00
23589;BME280;11972;48.078;11.876;2022-12-29T16:00:47;95143.88;;;6.19;100.00
23589;BME280;11972;48.078;11.876;2022-12-29T16:04:48;95139.59;;;6.18;100.00
23589;BME280;11972;48.078;11.876;2022-12-29T16:08:59;95144.19;;;6.16;100.00
23589;BME280;11972;48.078;11.876;2022-12-29T16:13:20;95139.59;;;6.10;100.00
23589;BME280;11972;48.078;11.876;2022-12-29T16:17:26;95144.50;;;6.05;100.00
23589;BME280;11972;48.078;11.876;2022-12-29T16:21:31;95155.97;;;6.04;100.00
23589;BME280;11972;48.078;11.876;2022-12-29T16:25:34;95153.69;;;6.09;100.00
23589;BME280;11972;48.078;11.876;2022-12-29T16:29:37;95146.50;;;6.19;100.00
23589;BME280;11972;48.078;11.876;2022-12-29T16:33:54;95146.66;;;6.26;100.00
23589;BME280;11972;48.078;11.876;2022-12-29T16:38:17;95147.63;;;6.25;100.00
23589;BME280;11972;48.078;11.876;2022-12-29T16:46:56;95143.88;;;6.19;100.00
23589;BME280;11972;48.078;11.876;2022-12-29T16:51:16;95152.72;;;6.18;100.00
23589;BME280;11972;48.078;11.876;2022-12-29T16:55:18;95149.09;;;6.19;100.00
23589;BME280;11972;48.078;11.876;2022-12-29T16:59:32;95157.63;;;6.13;100.00
23589;BME280;11972;48.078;11.876;2022-12-29T17:03:46;95159.91;;;6.00;100.00
23589;BME280;11972;48.078;11.876;2022-12-29T17:07:47;95153.97;;;5.89;100.00
23589;BME280;11972;48.078;11.876;2022-12-29T17:11:50;95151.38;;;5.89;100.00
23589;BME280;11972;48.078;11.876;2022-12-29T17:15:54;95154.63;;;5.83;100.00
23589;BME280;11972;48.078;11.876;2022-12-29T17:19:56;95149.84;;;5.70;100.00
23589;BME280;11972;48.078;11.876;2022-12-29T17:23:58;95151.13;;;5.58;100.00
23589;BME280;11972;48.078;11.876;2022-12-29T17:28:28;95158.47;;;5.46;100.00
23589;BME280;11972;48.078;11.876;2022-12-29T17:32:28;95162.53;;;5.33;100.00
23589;BME280;11972;48.078;11.876;2022-12-29T17:36:28;95164.78;;;5.19;100.00
23589;BME280;11972;48.078;11.876;2022-12-29T17:40:31;95161.63;;;5.08;100.00
23589;BME280;11972;48.078;11.876;2022-12-29T17:44:32;95166.50;;;5.03;100.00
23589;BME280;11972;48.078;11.876;2022-12-29T17:48:32;95168.44;;;5.01;100.00
23589;BME280;11972;48.078;11.876;2022-12-29T17:52:33;95162.91;;;5.04;100.00
23589;BME280;11972;48.078;11.876;2022-12-29T17:56:33;95160.94;;;5.06;100.00
23589;BME280;11972;48.078;11.876;2022-12-29T18:00:37;95165.88;;;5.09;100.00
23589;BME280;11972;48.078;11.876;2022-12-29T18:04:37;95165.88;;;5.09;100.00
23589;BME280;11972;48.078;11.876;2022-12-29T18:08:38;95162.91;;;5.04;100.00
23589;BME280;11972;48.078;11.876;2022-12-29T18:12:42;95167.47;;;5.02;100.00
23589;BME280;11972;48.078;11.876;2022-12-29T18:16:43;95165.69;;;5.02;100.00
23589;BME280;11972;48.078;11.876;2022-12-29T18:20:45;95160.94;;;5.06;100.00
23589;BME280;11972;48.078;11.876;2022-12-29T18:24:45;95151.44;;;5.05;100.00
23589;BME280;11972;48.078;11.876;2022-12-29T18:28:46;95153.38;;;4.94;100.00
23589;BME280;11972;48.078;11.876;2022-12-29T18:32:48;95146.41;;;4.77;100.00
23589;BME280;11972;48.078;11.876;2022-12-29T18:36:48;95151.41;;;4.62;100.00
23589;BME280;11972;48.078;11.876;2022-12-29T18:40:50;95154.63;;;4.56;100.00
23589;BME280;11972;48.078;11.876;2022-12-29T18:44:51;95162.00;;;4.61;100.00
23589;BME280;11972;48.078;11.876;2022-12-29T18:48:52;95165.69;;;4.76;100.00
23589;BME280;11972;48.078;11.876;2022-12-29T18:52:52;95164.16;;;4.91;100.00
23589;BME280;11972;48.078;11.876;2022-12-29T18:56:53;95175.31;;;5.02;100.00
23589;BME280;11972;48.078;11.876;2022-12-29T19:00:53;95166.69;;;5.09;100.00
23589;BME280;11972;48.078;11.876;2022-12-29T19:04:54;95182.91;;;5.13;100.00
23589;BME280;11972;48.078;11.876;2022-12-29T19:08:56;95180.97;;;5.15;100.00
23589;BME280;11972;48.078;11.876;2022-12-29T19:12:56;95180.63;;;5.18;100.00
23589;BME280;11972;48.078;11.876;2022-12-29T19:16:56;95176.72;;;5.22;100.00
23589;BME280;11972;48.078;11.876;2022-12-29T19:20:56;95175.78;;;5.31;100.00
23589;BME280;11972;48.078;11.876;2022-12-29T19:24:57;95178.09;;;5.42;100.00
23589;BME280;11972;48.078;11.876;2022-12-29T19:28:58;95183.72;;;5.47;100.00
23589;BME280;11972;48.078;11.876;2022-12-29T19:32:59;95176.19;;;5.53;100.00
23589;BME280;11972;48.078;11.876;2022-12-29T19:36:59;95175.69;;;5.57;100.00
23589;BME280;11972;48.078;11.876;2022-12-29T19:40:59;95169.00;;;5.63;100.00
23589;BME280;11972;48.078;11.876;2022-12-29T19:45:00;95163.09;;;5.61;100.00
23589;BME280;11972;48.078;11.876;2022-12-29T19:49:01;95169.66;;;5.57;100.00
23589;BME280;11972;48.078;11.876;2022-12-29T19:53:02;95166.03;;;5.58;100.00
23589;BME280;11972;48.078;11.876;2022-12-29T19:57:02;95174.22;;;5.63;100.00
23589;BME280;11972;48.078;11.876;2022-12-29T20:01:09;95172.94;;;5.67;100.00
23589;BME280;11972;48.078;11.876;2022-12-29T20:05:09;95182.28;;;5.69;100.00
23589;BME280;11972;48.078;11.876;2022-12-29T20:09:10;95172.31;;;5.81;100.00
23589;BME280;11972;48.078;11.876;2022-12-29T20:13:11;95179.69;;;5.86;100.00
23589;BME280;11972;48.078;11.876;2022-12-29T20:17:14;95173.69;;;5.93;100.00
23589;BME280;11972;48.078;11.876;2022-12-29T20:21:23;95175.31;;;6.03;100.00
23589;BME280;11972;48.078;11.876;2022-12-29T20:25:24;95175.66;;;6.08;100.00
23589;BME280;11972;48.078;11.876;2022-12-29T20:29:24;95182.69;;;6.07;100.00
23589;BME280;11972;48.078;11.876;2022-12-29T20:33:25;95179.44;;;6.05;100.00
23589;BME280;11972;48.078;11.876;2022-12-29T20:37:26;95167.13;;;6.06;100.00
23589;BME280;11972;48.078;11.876;2022-12-29T20:41:26;95162.72;;;6.06;100.00
23589;BME280;11972;48.078;11.876;2022-12-29T20:45:27;95163.19;;;6.02;100.00
23589;BME280;11972;48.078;11.876;2022-12-29T20:49:27;95162.38;;;6.01;100.00
23589;BME280;11972;48.078;11.876;2022-12-29T20:53:30;95163.34;;;6.00;100.00
23589;BME280;11972;48.078;11.876;2022-12-29T20:57:30;95159.91;;;6.00;100.00
23589;BME280;11972;48.078;11.876;2022-12-29T21:01:31;95151.41;;;5.97;100.00
23589;BME280;11972;48.078;11.876;2022-12-29T21:05:35;95150.59;;;5.97;100.00
23589;BME280;11972;48.078;11.876;2022-12-29T21:09:36;95154.34;;;5.94;100.00
23589;BME280;11972;48.078;11.876;2022-12-29T21:13:36;95150.38;;;5.90;100.00
23589;BME280;11972;48.078;11.876;2022-12-29T21:17:37;95149.22;;;5.85;100.00
23589;BME280;11972;48.078;11.876;2022-12-29T21:21:37;95154.63;;;5.83;100.00
23589;BME280;11972;48.078;11.876;2022-12-29T21:25:42;95147.09;;;5.80;100.00
23589;BME280;11972;48.078;11.876;2022-12-29T21:29:43;95150.84;;;5.78;100.00
23589;BME280;11972;48.078;11.876;2022-12-29T21:33:43;95147.41;;;5.77;100.00
23589;BME280;11972;48.078;11.876;2022-12-29T21:37:44;95151.50;;;5.80;100.00
23589;BME280;11972;48.078;11.876;2022-12-29T21:41:44;95148.56;;;5.83;100.00
23589;BME280;11972;48.078;11.876;2022-12-29T21:45:48;95145.44;;;5.87;100.00
23589;BME280;11972;48.078;11.876;2022-12-29T21:49:49;95149.56;;;5.90;100.00
23589;BME280;11972;48.078;11.876;2022-12-29T21:53:54;95142.69;;;5.89;100.00
23589;BME280;11972;48.078;11.876;2022-12-29T21:57:55;95149.88;;;5.87;100.00
23589;BME280;11972;48.078;11.876;2022-12-29T22:02:31;95143.19;;;5.84;100.00
23589;BME280;11972;48.078;11.876;2022-12-29T22:06:51;95148.41;;;5.84;100.00
23589;BME280;11972;48.078;11.876;2022-12-29T22:11:09;95153.97;;;5.81;100.00
23589;BME280;11972;48.078;11.876;2022-12-29T22:15:31;95164.78;;;5.78;100.00
23589;BME280;11972;48.078;11.876;2022-12-29T22:19:32;95160.84;;;5.74;100.00
23589;BME280;11972;48.078;11.876;2022-12-29T22:23:32;95171.13;;;5.67;100.00
23589;BME280;11972;48.078;11.876;2022-12-29T22:27:33;95172.09;;;5.58;100.00
23589;BME280;11972;48.078;11.876;2022-12-29T22:31:34;95175.16;;;5.45;100.00
23589;BME280;11972;48.078;11.876;2022-12-29T22:35:34;95173.19;;;5.39;100.00
23589;BME280;11972;48.078;11.876;2022-12-29T22:39:34;95178.06;;;5.34;100.00
23589;BME280;11972;48.078;11.876;2022-12-29T22:43:35;95179.06;;;5.33;100.00
23589;BME280;11972;48.078;11.876;2022-12-29T22:47:35;95189.22;;;5.36;100.00
23589;BME280;11972;48.078;11.876;2022-12-29T22:51:35;95192.84;;;5.35;100.00
23589;BME280;11972;48.078;11.876;2022-12-29T22:55:36;95198.06;;;5.35;100.00
23589;BME280;11972;48.078;11.876;2022-12-29T22:59:36;95210.19;;;5.36;100.00
23589;BME280;11972;48.078;11.876;2022-12-29T23:03:36;95210.19;;;5.36;100.00
23589;BME280;11972;48.078;11.876;2022-12-29T23:07:37;95208.22;;;5.38;100.00